sensor_id;sensor_type;location;lat;lon;timestamp;P1;durP1;ratioP1;P2;durP2;ratioP2
16665;SDS011;8446;50.998;6.250;2023-07-22T00:00:53;12.10;;;5.47;;
16665;SDS011;8446;50.998;6.250;2023-07-22T00:03:20;8.00;;;5.30;;
16665;SDS011;8446;50.998;6.250;2023-07-22T00:05:47;9.57;;;5.20;;
16665;SDS011;8446;50.998;6.250;2023-07-22T00:08:15;8.40;;;6.00;;
16665;SDS011;8446;50.998;6.250;2023-07-22T00:10:42;8.73;;;5.43;;
16665;SDS011;8446;50.998;6.250;2023-07-22T00:13:10;9.80;;;5.83;;
16665;SDS011;8446;50.998;6.250;2023-07-22T00:15:37;12.70;;;6.07;;
16665;SDS011;8446;50.998;6.250;2023-07-22T00:18:04;9.70;;;6.17;;
16665;SDS011;8446;50.998;6.250;2023-07-22T00:20:31;9.37;;;5.53;;
16665;SDS011;8446;50.998;6.250;2023-07-22T00:22:58;10.70;;;5.40;;
16665;SDS011;8446;50.998;6.250;2023-07-22T00:25:24;7.63;;;5.27;;
16665;SDS011;8446;50.998;6.250;2023-07-22T00:27:51;9.77;;;6.40;;
16665;SDS011;8446;50.998;6.250;2023-07-22T00:30:19;13.43;;;6.07;;
16665;SDS011;8446;50.998;6.250;2023-07-22T00:32:46;9.43;;;6.20;;
16665;SDS011;8446;50.998;6.250;2023-07-22T00:35:13;11.70;;;5.97;;
16665;SDS011;8446;50.998;6.250;2023-07-22T00:37:40;8.80;;;5.50;;
16665;SDS011;8446;50.998;6.250;2023-07-22T00:40:07;7.53;;;5.83;;
16665;SDS011;8446;50.998;6.250;2023-07-22T00:42:36;11.00;;;6.73;;
16665;SDS011;8446;50.998;6.250;2023-07-22T00:45:04;11.00;;;5.80;;
16665;SDS011;8446;50.998;6.250;2023-07-22T00:47:33;8.50;;;4.80;;
16665;SDS011;8446;50.998;6.250;2023-07-22T00:50:01;8.60;;;5.60;;
16665;SDS011;8446;50.998;6.250;2023-07-22T00:52:29;9.80;;;6.70;;
16665;SDS011;8446;50.998;6.250;2023-07-22T00:54:56;9.43;;;5.53;;
16665;SDS011;8446;50.998;6.250;2023-07-22T00:57:23;11.77;;;5.83;;
16665;SDS011;8446;50.998;6.250;2023-07-22T00:59:50;9.37;;;5.63;;
16665;SDS011;8446;50.998;6.250;2023-07-22T01:04:45;12.47;;;6.23;;
16665;SDS011;8446;50.998;6.250;2023-07-22T01:07:13;8.57;;;5.53;;
16665;SDS011;8446;50.998;6.250;2023-07-22T01:09:40;9.10;;;5.60;;
16665;SDS011;8446;50.998;6.250;2023-07-22T01:12:08;9.70;;;5.33;;
16665;SDS011;8446;50.998;6.250;2023-07-22T01:14:36;10.90;;;5.43;;
16665;SDS011;8446;50.998;6.250;2023-07-22T01:17:05;8.87;;;5.83;;
16665;SDS011;8446;50.998;6.250;2023-07-22T01:19:33;9.97;;;5.30;;
16665;SDS011;8446;50.998;6.250;2023-07-22T01:22:02;9.77;;;6.17;;
16665;SDS011;8446;50.998;6.250;2023-07-22T01:24:32;9.27;;;5.43;;
16665;SDS011;8446;50.998;6.250;2023-07-22T01:26:59;11.13;;;6.50;;
16665;SDS011;8446;50.998;6.250;2023-07-22T01:29:28;8.90;;;5.70;;
16665;SDS011;8446;50.998;6.250;2023-07-22T01:31:55;9.20;;;5.83;;
16665;SDS011;8446;50.998;6.250;2023-07-22T01:34:22;8.90;;;5.90;;
16665;SDS011;8446;50.998;6.250;2023-07-22T01:36:49;7.97;;;5.30;;
16665;SDS011;8446;50.998;6.250;2023-07-22T01:39:16;14.90;;;6.67;;
16665;SDS011;8446;50.998;6.250;2023-07-22T01:41:45;8.77;;;5.73;;
16665;SDS011;8446;50.998;6.250;2023-07-22T01:44:12;11.33;;;5.83;;
16665;SDS011;8446;50.998;6.250;2023-07-22T01:46:39;11.67;;;6.27;;
16665;SDS011;8446;50.998;6.250;2023-07-22T01:49:08;13.33;;;6.70;;
16665;SDS011;8446;50.998;6.250;2023-07-22T01:51:37;9.07;;;5.60;;
16665;SDS011;8446;50.998;6.250;2023-07-22T01:54:05;10.53;;;5.30;;
16665;SDS011;8446;50.998;6.250;2023-07-22T01:56:32;8.87;;;5.93;;
16665;SDS011;8446;50.998;6.250;2023-07-22T01:59:00;10.97;;;6.50;;
16665;SDS011;8446;50.998;6.250;2023-07-22T02:01:41;11.73;;;7.00;;
16665;SDS011;8446;50.998;6.250;2023-07-22T02:04:08;12.53;;;7.00;;
16665;SDS011;8446;50.998;6.250;2023-07-22T02:06:36;9.30;;;6.10;;
16665;SDS011;8446;50.998;6.250;2023-07-22T02:09:02;10.03;;;6.67;;
16665;SDS011;8446;50.998;6.250;2023-07-22T02:11:33;9.53;;;7.07;;
16665;SDS011;8446;50.998;6.250;2023-07-22T02:14:02;9.37;;;5.90;;
16665;SDS011;8446;50.998;6.250;2023-07-22T02:16:31;13.43;;;6.37;;
16665;SDS011;8446;50.998;6.250;2023-07-22T02:18:58;14.03;;;6.37;;
16665;SDS011;8446;50.998;6.250;2023-07-22T02:21:25;11.60;;;7.00;;
16665;SDS011;8446;50.998;6.250;2023-07-22T02:23:53;8.90;;;5.60;;
16665;SDS011;8446;50.998;6.250;2023-07-22T02:26:19;12.17;;;6.20;;
16665;SDS011;8446;50.998;6.250;2023-07-22T02:28:46;11.77;;;7.17;;
16665;SDS011;8446;50.998;6.250;2023-07-22T02:31:15;15.63;;;6.07;;
16665;SDS011;8446;50.998;6.250;2023-07-22T02:33:42;12.37;;;5.80;;
16665;SDS011;8446;50.998;6.250;2023-07-22T02:36:08;9.70;;;6.00;;
16665;SDS011;8446;50.998;6.250;2023-07-22T02:38:35;11.10;;;6.40;;
16665;SDS011;8446;50.998;6.250;2023-07-22T02:41:02;12.93;;;6.10;;
16665;SDS011;8446;50.998;6.250;2023-07-22T02:43:31;12.90;;;6.13;;
16665;SDS011;8446;50.998;6.250;2023-07-22T02:45:59;10.73;;;6.90;;
16665;SDS011;8446;50.998;6.250;2023-07-22T02:48:28;10.93;;;6.40;;
16665;SDS011;8446;50.998;6.250;2023-07-22T02:51:01;11.43;;;6.07;;
16665;SDS011;8446;50.998;6.250;2023-07-22T02:53:30;10.20;;;6.57;;
16665;SDS011;8446;50.998;6.250;2023-07-22T02:55:57;8.97;;;5.50;;
16665;SDS011;8446;50.998;6.250;2023-07-22T02:58:24;8.93;;;5.77;;
16665;SDS011;8446;50.998;6.250;2023-07-22T03:00:50;10.27;;;6.70;;
16665;SDS011;8446;50.998;6.250;2023-07-22T03:03:17;12.87;;;6.40;;
16665;SDS011;8446;50.998;6.250;2023-07-22T03:05:46;12.37;;;6.77;;
16665;SDS011;8446;50.998;6.250;2023-07-22T03:08:13;11.53;;;7.37;;
16665;SDS011;8446;50.998;6.250;2023-07-22T03:10:40;10.53;;;7.00;;
16665;SDS011;8446;50.998;6.250;2023-07-22T03:13:09;14.60;;;7.27;;
16665;SDS011;8446;50.998;6.250;2023-07-22T03:15:35;12.00;;;5.70;;
16665;SDS011;8446;50.998;6.250;2023-07-22T03:18:02;10.33;;;5.70;;
16665;SDS011;8446;50.998;6.250;2023-07-22T03:20:30;12.27;;;6.90;;
16665;SDS011;8446;50.998;6.250;2023-07-22T03:22:58;11.33;;;5.97;;
16665;SDS011;8446;50.998;6.250;2023-07-22T03:25:24;10.23;;;6.17;;
16665;SDS011;8446;50.998;6.250;2023-07-22T03:27:51;12.30;;;5.87;;
16665;SDS011;8446;50.998;6.250;2023-07-22T03:30:18;10.20;;;6.37;;
16665;SDS011;8446;50.998;6.250;2023-07-22T03:32:47;11.27;;;5.90;;
16665;SDS011;8446;50.998;6.250;2023-07-22T03:35:15;12.13;;;6.50;;
16665;SDS011;8446;50.998;6.250;2023-07-22T03:37:42;9.90;;;6.13;;
16665;SDS011;8446;50.998;6.250;2023-07-22T03:40:11;10.63;;;5.70;;
16665;SDS011;8446;50.998;6.250;2023-07-22T03:42:42;11.60;;;5.77;;
16665;SDS011;8446;50.998;6.250;2023-07-22T03:45:09;10.60;;;6.13;;
16665;SDS011;8446;50.998;6.250;2023-07-22T03:47:36;11.17;;;6.00;;
16665;SDS011;8446;50.998;6.250;2023-07-22T03:50:05;10.77;;;6.53;;
16665;SDS011;8446;50.998;6.250;2023-07-22T03:52:32;9.63;;;5.57;;
16665;SDS011;8446;50.998;6.250;2023-07-22T03:54:59;8.87;;;6.10;;
16665;SDS011;8446;50.998;6.250;2023-07-22T03:57:27;13.63;;;6.83;;
16665;SDS011;8446;50.998;6.250;2023-07-22T03:59:54;12.03;;;7.00;;
16665;SDS011;8446;50.998;6.250;2023-07-22T04:02:21;12.67;;;6.30;;
16665;SDS011;8446;50.998;6.250;2023-07-22T04:04:49;10.30;;;6.53;;
16665;SDS011;8446;50.998;6.250;2023-07-22T04:07:16;10.77;;;6.53;;
16665;SDS011;8446;50.998;6.250;2023-07-22T04:09:44;11.13;;;6.17;;
16665;SDS011;8446;50.998;6.250;2023-07-22T04:12:11;12.53;;;6.70;;
16665;SDS011;8446;50.998;6.250;2023-07-22T04:14:39;13.17;;;5.47;;
16665;SDS011;8446;50.998;6.250;2023-07-22T04:17:06;8.97;;;5.83;;
16665;SDS011;8446;50.998;6.250;2023-07-22T04:19:33;11.03;;;6.43;;
16665;SDS011;8446;50.998;6.250;2023-07-22T04:22:01;12.83;;;5.90;;
16665;SDS011;8446;50.998;6.250;2023-07-22T04:24:29;9.33;;;5.60;;
16665;SDS011;8446;50.998;6.250;2023-07-22T04:26:56;9.30;;;5.97;;
16665;SDS011;8446;50.998;6.250;2023-07-22T04:29:23;12.53;;;5.37;;
16665;SDS011;8446;50.998;6.250;2023-07-22T04:31:51;10.73;;;5.77;;
16665;SDS011;8446;50.998;6.250;2023-07-22T04:34:22;9.27;;;5.70;;
16665;SDS011;8446;50.998;6.250;2023-07-22T04:36:50;12.83;;;6.50;;
16665;SDS011;8446;50.998;6.250;2023-07-22T04:39:17;10.10;;;6.53;;
16665;SDS011;8446;50.998;6.250;2023-07-22T04:41:44;9.10;;;5.83;;
16665;SDS011;8446;50.998;6.250;2023-07-22T04:44:11;7.77;;;5.40;;
16665;SDS011;8446;50.998;6.250;2023-07-22T04:46:37;13.27;;;6.10;;
16665;SDS011;8446;50.998;6.250;2023-07-22T04:49:07;9.50;;;5.23;;
16665;SDS011;8446;50.998;6.250;2023-07-22T04:51:33;7.20;;;5.00;;
16665;SDS011;8446;50.998;6.250;2023-07-22T04:54:00;10.77;;;5.23;;
16665;SDS011;8446;50.998;6.250;2023-07-22T04:56:27;7.63;;;5.33;;
16665;SDS011;8446;50.998;6.250;2023-07-22T04:58:54;7.07;;;4.87;;
16665;SDS011;8446;50.998;6.250;2023-07-22T05:01:21;13.73;;;6.57;;
16665;SDS011;8446;50.998;6.250;2023-07-22T05:03:47;7.53;;;5.20;;
16665;SDS011;8446;50.998;6.250;2023-07-22T05:06:15;13.33;;;5.90;;
16665;SDS011;8446;50.998;6.250;2023-07-22T05:08:42;10.60;;;5.60;;
16665;SDS011;8446;50.998;6.250;2023-07-22T05:11:09;10.73;;;5.90;;
16665;SDS011;8446;50.998;6.250;2023-07-22T05:13:36;10.80;;;6.33;;
16665;SDS011;8446;50.998;6.250;2023-07-22T05:16:03;8.87;;;5.87;;
16665;SDS011;8446;50.998;6.250;2023-07-22T05:18:30;9.03;;;5.97;;
16665;SDS011;8446;50.998;6.250;2023-07-22T05:20:56;11.60;;;7.37;;
16665;SDS011;8446;50.998;6.250;2023-07-22T05:23:25;13.93;;;6.40;;
16665;SDS011;8446;50.998;6.250;2023-07-22T05:25:52;9.73;;;5.50;;
16665;SDS011;8446;50.998;6.250;2023-07-22T05:28:19;8.20;;;5.50;;
16665;SDS011;8446;50.998;6.250;2023-07-22T05:30:46;8.20;;;5.40;;
16665;SDS011;8446;50.998;6.250;2023-07-22T05:33:13;9.67;;;6.00;;
16665;SDS011;8446;50.998;6.250;2023-07-22T05:35:40;9.50;;;6.27;;
16665;SDS011;8446;50.998;6.250;2023-07-22T05:38:06;7.80;;;5.70;;
16665;SDS011;8446;50.998;6.250;2023-07-22T05:40:35;15.93;;;6.20;;
16665;SDS011;8446;50.998;6.250;2023-07-22T05:43:01;10.57;;;6.90;;
16665;SDS011;8446;50.998;6.250;2023-07-22T05:45:28;11.13;;;7.20;;
16665;SDS011;8446;50.998;6.250;2023-07-22T05:47:55;12.27;;;6.40;;
16665;SDS011;8446;50.998;6.250;2023-07-22T05:50:22;13.00;;;5.90;;
16665;SDS011;8446;50.998;6.250;2023-07-22T05:52:48;12.37;;;6.90;;
16665;SDS011;8446;50.998;6.250;2023-07-22T05:55:15;10.97;;;5.90;;
16665;SDS011;8446;50.998;6.250;2023-07-22T05:57:43;13.13;;;6.60;;
16665;SDS011;8446;50.998;6.250;2023-07-22T06:00:11;11.30;;;6.63;;
16665;SDS011;8446;50.998;6.250;2023-07-22T06:02:39;10.60;;;6.60;;
16665;SDS011;8446;50.998;6.250;2023-07-22T06:05:06;12.20;;;6.70;;
16665;SDS011;8446;50.998;6.250;2023-07-22T06:07:33;12.37;;;5.80;;
16665;SDS011;8446;50.998;6.250;2023-07-22T06:10:00;11.03;;;6.83;;
16665;SDS011;8446;50.998;6.250;2023-07-22T06:12:27;20.07;;;6.83;;
16665;SDS011;8446;50.998;6.250;2023-07-22T06:14:55;9.10;;;6.60;;
16665;SDS011;8446;50.998;6.250;2023-07-22T06:17:22;10.47;;;7.07;;
16665;SDS011;8446;50.998;6.250;2023-07-22T06:19:49;14.27;;;7.37;;
16665;SDS011;8446;50.998;6.250;2023-07-22T06:22:16;11.13;;;6.77;;
16665;SDS011;8446;50.998;6.250;2023-07-22T06:24:43;11.00;;;7.00;;
16665;SDS011;8446;50.998;6.250;2023-07-22T06:27:09;11.33;;;7.03;;
16665;SDS011;8446;50.998;6.250;2023-07-22T06:29:36;9.90;;;6.80;;
16665;SDS011;8446;50.998;6.250;2023-07-22T06:32:05;10.57;;;6.63;;
16665;SDS011;8446;50.998;6.250;2023-07-22T06:34:32;22.33;;;7.77;;
16665;SDS011;8446;50.998;6.250;2023-07-22T06:36:59;14.17;;;7.53;;
16665;SDS011;8446;50.998;6.250;2023-07-22T06:39:26;10.73;;;6.67;;
16665;SDS011;8446;50.998;6.250;2023-07-22T06:41:53;11.43;;;6.70;;
16665;SDS011;8446;50.998;6.250;2023-07-22T06:44:20;12.80;;;7.70;;
16665;SDS011;8446;50.998;6.250;2023-07-22T06:46:47;11.80;;;7.60;;
16665;SDS011;8446;50.998;6.250;2023-07-22T06:49:15;12.00;;;6.87;;
16665;SDS011;8446;50.998;6.250;2023-07-22T06:51:42;12.37;;;8.00;;
16665;SDS011;8446;50.998;6.250;2023-07-22T06:54:09;11.80;;;7.00;;
16665;SDS011;8446;50.998;6.250;2023-07-22T06:56:35;12.00;;;7.00;;
16665;SDS011;8446;50.998;6.250;2023-07-22T06:59:02;14.23;;;7.40;;
16665;SDS011;8446;50.998;6.250;2023-07-22T07:01:29;13.60;;;7.50;;
16665;SDS011;8446;50.998;6.250;2023-07-22T07:03:56;10.20;;;6.90;;
16665;SDS011;8446;50.998;6.250;2023-07-22T07:06:24;12.30;;;7.73;;
16665;SDS011;8446;50.998;6.250;2023-07-22T07:08:51;10.27;;;6.73;;
16665;SDS011;8446;50.998;6.250;2023-07-22T07:11:17;10.93;;;6.07;;
16665;SDS011;8446;50.998;6.250;2023-07-22T07:13:44;12.53;;;7.07;;
16665;SDS011;8446;50.998;6.250;2023-07-22T07:16:20;13.47;;;7.50;;
16665;SDS011;8446;50.998;6.250;2023-07-22T07:18:48;18.27;;;6.63;;
16665;SDS011;8446;50.998;6.250;2023-07-22T07:21:15;11.40;;;7.30;;
16665;SDS011;8446;50.998;6.250;2023-07-22T07:23:44;14.20;;;7.53;;
16665;SDS011;8446;50.998;6.250;2023-07-22T07:26:11;10.10;;;7.43;;
16665;SDS011;8446;50.998;6.250;2023-07-22T07:28:38;11.40;;;6.90;;
16665;SDS011;8446;50.998;6.250;2023-07-22T07:31:04;9.73;;;5.47;;
16665;SDS011;8446;50.998;6.250;2023-07-22T07:33:32;9.47;;;5.90;;
16665;SDS011;8446;50.998;6.250;2023-07-22T07:35:59;12.67;;;6.27;;
16665;SDS011;8446;50.998;6.250;2023-07-22T07:38:26;12.07;;;6.30;;
16665;SDS011;8446;50.998;6.250;2023-07-22T07:40:56;9.87;;;6.77;;
16665;SDS011;8446;50.998;6.250;2023-07-22T07:43:24;9.00;;;5.67;;
16665;SDS011;8446;50.998;6.250;2023-07-22T07:46:11;8.63;;;5.80;;
16665;SDS011;8446;50.998;6.250;2023-07-22T07:48:38;8.80;;;5.70;;
16665;SDS011;8446;50.998;6.250;2023-07-22T07:51:05;7.40;;;5.30;;
16665;SDS011;8446;50.998;6.250;2023-07-22T07:53:32;11.33;;;5.13;;
16665;SDS011;8446;50.998;6.250;2023-07-22T07:56:00;22.90;;;5.53;;
16665;SDS011;8446;50.998;6.250;2023-07-22T07:58:27;9.10;;;4.90;;
16665;SDS011;8446;50.998;6.250;2023-07-22T08:00:53;7.90;;;4.57;;
16665;SDS011;8446;50.998;6.250;2023-07-22T08:03:20;10.73;;;5.93;;
16665;SDS011;8446;50.998;6.250;2023-07-22T08:05:47;6.30;;;5.20;;
16665;SDS011;8446;50.998;6.250;2023-07-22T08:08:14;5.63;;;3.90;;
16665;SDS011;8446;50.998;6.250;2023-07-22T08:10:41;7.33;;;4.23;;
16665;SDS011;8446;50.998;6.250;2023-07-22T08:13:10;5.00;;;3.93;;
16665;SDS011;8446;50.998;6.250;2023-07-22T08:15:37;11.70;;;4.70;;
16665;SDS011;8446;50.998;6.250;2023-07-22T08:18:04;6.83;;;4.40;;
16665;SDS011;8446;50.998;6.250;2023-07-22T08:20:31;8.40;;;4.87;;
16665;SDS011;8446;50.998;6.250;2023-07-22T08:22:57;7.33;;;4.30;;
16665;SDS011;8446;50.998;6.250;2023-07-22T08:25:24;5.60;;;3.60;;
16665;SDS011;8446;50.998;6.250;2023-07-22T08:27:52;6.83;;;4.40;;
16665;SDS011;8446;50.998;6.250;2023-07-22T08:30:20;8.40;;;4.43;;
16665;SDS011;8446;50.998;6.250;2023-07-22T08:32:47;3.80;;;3.17;;
16665;SDS011;8446;50.998;6.250;2023-07-22T08:35:14;8.53;;;3.57;;
16665;SDS011;8446;50.998;6.250;2023-07-22T08:37:42;5.60;;;3.70;;
16665;SDS011;8446;50.998;6.250;2023-07-22T08:40:09;5.77;;;4.47;;
16665;SDS011;8446;50.998;6.250;2023-07-22T08:42:37;6.47;;;3.70;;
16665;SDS011;8446;50.998;6.250;2023-07-22T08:45:04;11.73;;;4.13;;
16665;SDS011;8446;50.998;6.250;2023-07-22T08:47:36;5.10;;;3.17;;
16665;SDS011;8446;50.998;6.250;2023-07-22T08:50:08;4.53;;;2.90;;
16665;SDS011;8446;50.998;6.250;2023-07-22T08:52:36;4.13;;;3.50;;
16665;SDS011;8446;50.998;6.250;2023-07-22T08:55:04;5.67;;;3.10;;
16665;SDS011;8446;50.998;6.250;2023-07-22T08:57:31;7.00;;;3.67;;
16665;SDS011;8446;50.998;6.250;2023-07-22T08:59:59;4.80;;;3.67;;
16665;SDS011;8446;50.998;6.250;2023-07-22T09:02:30;6.30;;;3.37;;
16665;SDS011;8446;50.998;6.250;2023-07-22T09:05:00;6.13;;;3.03;;
16665;SDS011;8446;50.998;6.250;2023-07-22T09:07:27;6.53;;;3.77;;
16665;SDS011;8446;50.998;6.250;2023-07-22T09:09:54;3.47;;;3.10;;
16665;SDS011;8446;50.998;6.250;2023-07-22T09:12:22;4.20;;;3.10;;
16665;SDS011;8446;50.998;6.250;2023-07-22T09:14:50;4.50;;;3.10;;
16665;SDS011;8446;50.998;6.250;2023-07-22T09:17:18;6.80;;;3.40;;
16665;SDS011;8446;50.998;6.250;2023-07-22T09:19:45;4.13;;;2.70;;
16665;SDS011;8446;50.998;6.250;2023-07-22T09:22:13;4.23;;;2.73;;
16665;SDS011;8446;50.998;6.250;2023-07-22T09:24:39;5.13;;;3.33;;
16665;SDS011;8446;50.998;6.250;2023-07-22T09:27:06;6.17;;;2.83;;
16665;SDS011;8446;50.998;6.250;2023-07-22T09:29:33;4.10;;;3.00;;
16665;SDS011;8446;50.998;6.250;2023-07-22T09:32:01;6.23;;;3.10;;
16665;SDS011;8446;50.998;6.250;2023-07-22T09:34:28;3.90;;;3.33;;
16665;SDS011;8446;50.998;6.250;2023-07-22T09:36:55;9.73;;;3.07;;
16665;SDS011;8446;50.998;6.250;2023-07-22T09:39:26;3.20;;;2.13;;
16665;SDS011;8446;50.998;6.250;2023-07-22T09:41:53;3.17;;;2.53;;
16665;SDS011;8446;50.998;6.250;2023-07-22T09:44:20;4.90;;;2.67;;
16665;SDS011;8446;50.998;6.250;2023-07-22T09:46:47;6.53;;;2.97;;
16665;SDS011;8446;50.998;6.250;2023-07-22T09:49:15;2.70;;;2.33;;
16665;SDS011;8446;50.998;6.250;2023-07-22T09:51:43;3.30;;;2.60;;
16665;SDS011;8446;50.998;6.250;2023-07-22T09:54:11;4.70;;;3.23;;
16665;SDS011;8446;50.998;6.250;2023-07-22T09:56:45;5.30;;;3.03;;
16665;SDS011;8446;50.998;6.250;2023-07-22T09:59:13;4.47;;;2.87;;
16665;SDS011;8446;50.998;6.250;2023-07-22T10:01:40;3.80;;;3.00;;
16665;SDS011;8446;50.998;6.250;2023-07-22T10:04:11;4.77;;;2.70;;
16665;SDS011;8446;50.998;6.250;2023-07-22T10:06:41;4.80;;;3.03;;
16665;SDS011;8446;50.998;6.250;2023-07-22T10:09:10;3.47;;;2.53;;
16665;SDS011;8446;50.998;6.250;2023-07-22T10:11:38;3.80;;;2.73;;
16665;SDS011;8446;50.998;6.250;2023-07-22T10:14:07;9.43;;;3.00;;
16665;SDS011;8446;50.998;6.250;2023-07-22T10:16:33;2.63;;;2.40;;
16665;SDS011;8446;50.998;6.250;2023-07-22T10:19:02;12.70;;;2.77;;
16665;SDS011;8446;50.998;6.250;2023-07-22T10:21:29;9.73;;;3.13;;
16665;SDS011;8446;50.998;6.250;2023-07-22T10:23:57;6.27;;;2.40;;
16665;SDS011;8446;50.998;6.250;2023-07-22T10:26:26;3.33;;;3.03;;
16665;SDS011;8446;50.998;6.250;2023-07-22T10:28:54;5.33;;;2.70;;
16665;SDS011;8446;50.998;6.250;2023-07-22T10:31:24;5.70;;;2.80;;
16665;SDS011;8446;50.998;6.250;2023-07-22T10:33:50;5.33;;;2.93;;
16665;SDS011;8446;50.998;6.250;2023-07-22T10:36:17;3.40;;;2.97;;
16665;SDS011;8446;50.998;6.250;2023-07-22T10:38:44;4.90;;;2.77;;
16665;SDS011;8446;50.998;6.250;2023-07-22T10:41:21;3.30;;;2.70;;
16665;SDS011;8446;50.998;6.250;2023-07-22T10:43:53;3.57;;;2.60;;
16665;SDS011;8446;50.998;6.250;2023-07-22T10:46:30;17.87;;;4.20;;
16665;SDS011;8446;50.998;6.250;2023-07-22T10:49:06;3.33;;;2.70;;
16665;SDS011;8446;50.998;6.250;2023-07-22T10:51:36;4.57;;;3.20;;
16665;SDS011;8446;50.998;6.250;2023-07-22T10:54:03;7.73;;;3.43;;
16665;SDS011;8446;50.998;6.250;2023-07-22T10:56:37;8.57;;;6.40;;
16665;SDS011;8446;50.998;6.250;2023-07-22T10:59:04;3.70;;;3.07;;
16665;SDS011;8446;50.998;6.250;2023-07-22T11:01:33;3.70;;;2.90;;
16665;SDS011;8446;50.998;6.250;2023-07-22T11:04:09;11.87;;;3.60;;
16665;SDS011;8446;50.998;6.250;2023-07-22T11:06:51;6.63;;;3.17;;
16665;SDS011;8446;50.998;6.250;2023-07-22T11:12:02;4.07;;;3.60;;
16665;SDS011;8446;50.998;6.250;2023-07-22T11:14:31;9.73;;;2.70;;
16665;SDS011;8446;50.998;6.250;2023-07-22T11:17:01;5.07;;;3.53;;
16665;SDS011;8446;50.998;6.250;2023-07-22T11:19:30;4.03;;;2.47;;
16665;SDS011;8446;50.998;6.250;2023-07-22T11:21:57;3.90;;;2.30;;
16665;SDS011;8446;50.998;6.250;2023-07-22T11:24:25;3.53;;;2.30;;
16665;SDS011;8446;50.998;6.250;2023-07-22T11:26:52;3.90;;;2.50;;
16665;SDS011;8446;50.998;6.250;2023-07-22T11:29:20;2.63;;;2.43;;
16665;SDS011;8446;50.998;6.250;2023-07-22T11:31:47;7.00;;;2.00;;
16665;SDS011;8446;50.998;6.250;2023-07-22T11:34:17;3.03;;;2.37;;
16665;SDS011;8446;50.998;6.250;2023-07-22T11:36:45;5.93;;;1.90;;
16665;SDS011;8446;50.998;6.250;2023-07-22T11:39:14;6.60;;;2.63;;
16665;SDS011;8446;50.998;6.250;2023-07-22T11:41:42;7.80;;;2.33;;
16665;SDS011;8446;50.998;6.250;2023-07-22T11:44:10;2.33;;;2.13;;
16665;SDS011;8446;50.998;6.250;2023-07-22T11:46:46;2.87;;;2.13;;
16665;SDS011;8446;50.998;6.250;2023-07-22T11:49:15;4.20;;;2.37;;
16665;SDS011;8446;50.998;6.250;2023-07-22T11:51:50;6.67;;;2.20;;
16665;SDS011;8446;50.998;6.250;2023-07-22T11:54:18;2.57;;;2.33;;
16665;SDS011;8446;50.998;6.250;2023-07-22T11:56:46;5.53;;;2.37;;
16665;SDS011;8446;50.998;6.250;2023-07-22T11:59:13;6.57;;;2.67;;
16665;SDS011;8446;50.998;6.250;2023-07-22T12:01:42;2.87;;;2.30;;
16665;SDS011;8446;50.998;6.250;2023-07-22T12:04:10;16.77;;;2.43;;
16665;SDS011;8446;50.998;6.250;2023-07-22T12:06:39;2.50;;;2.30;;
16665;SDS011;8446;50.998;6.250;2023-07-22T12:09:07;3.17;;;2.37;;
16665;SDS011;8446;50.998;6.250;2023-07-22T12:11:34;3.00;;;2.30;;
16665;SDS011;8446;50.998;6.250;2023-07-22T12:14:05;3.47;;;2.70;;
16665;SDS011;8446;50.998;6.250;2023-07-22T12:16:34;4.10;;;2.50;;
16665;SDS011;8446;50.998;6.250;2023-07-22T12:19:02;4.17;;;2.60;;
16665;SDS011;8446;50.998;6.250;2023-07-22T12:21:30;5.40;;;2.87;;
16665;SDS011;8446;50.998;6.250;2023-07-22T12:23:58;4.10;;;2.80;;
16665;SDS011;8446;50.998;6.250;2023-07-22T12:26:26;9.67;;;3.00;;
16665;SDS011;8446;50.998;6.250;2023-07-22T12:28:53;4.33;;;2.57;;
16665;SDS011;8446;50.998;6.250;2023-07-22T12:31:20;2.70;;;2.43;;
16665;SDS011;8446;50.998;6.250;2023-07-22T12:33:46;4.30;;;2.33;;
16665;SDS011;8446;50.998;6.250;2023-07-22T12:36:13;15.40;;;3.30;;
16665;SDS011;8446;50.998;6.250;2023-07-22T12:38:40;3.00;;;2.60;;
16665;SDS011;8446;50.998;6.250;2023-07-22T12:41:08;2.90;;;2.43;;
16665;SDS011;8446;50.998;6.250;2023-07-22T12:43:35;3.73;;;2.33;;
16665;SDS011;8446;50.998;6.250;2023-07-22T12:46:02;3.13;;;2.70;;
16665;SDS011;8446;50.998;6.250;2023-07-22T12:48:28;2.63;;;2.43;;
16665;SDS011;8446;50.998;6.250;2023-07-22T12:50:55;3.10;;;2.63;;
16665;SDS011;8446;50.998;6.250;2023-07-22T12:53:22;5.00;;;2.90;;
16665;SDS011;8446;50.998;6.250;2023-07-22T12:55:50;2.33;;;2.13;;
16665;SDS011;8446;50.998;6.250;2023-07-22T12:58:18;4.30;;;2.90;;
16665;SDS011;8446;50.998;6.250;2023-07-22T13:00:45;2.50;;;2.30;;
16665;SDS011;8446;50.998;6.250;2023-07-22T13:03:12;3.10;;;2.30;;
16665;SDS011;8446;50.998;6.250;2023-07-22T13:05:39;6.53;;;2.33;;
16665;SDS011;8446;50.998;6.250;2023-07-22T13:08:06;3.17;;;2.87;;
16665;SDS011;8446;50.998;6.250;2023-07-22T13:10:33;2.83;;;2.43;;
16665;SDS011;8446;50.998;6.250;2023-07-22T13:13:02;4.73;;;2.37;;
16665;SDS011;8446;50.998;6.250;2023-07-22T13:15:30;3.90;;;2.70;;
16665;SDS011;8446;50.998;6.250;2023-07-22T13:17:57;3.83;;;2.23;;
16665;SDS011;8446;50.998;6.250;2023-07-22T13:20:24;3.20;;;2.73;;
16665;SDS011;8446;50.998;6.250;2023-07-22T13:22:51;4.80;;;2.43;;
16665;SDS011;8446;50.998;6.250;2023-07-22T13:25:17;3.87;;;2.30;;
16665;SDS011;8446;50.998;6.250;2023-07-22T13:27:44;13.33;;;3.60;;
16665;SDS011;8446;50.998;6.250;2023-07-22T13:30:11;7.67;;;2.30;;
16665;SDS011;8446;50.998;6.250;2023-07-22T13:32:39;11.90;;;3.17;;
16665;SDS011;8446;50.998;6.250;2023-07-22T13:35:07;3.77;;;2.53;;
16665;SDS011;8446;50.998;6.250;2023-07-22T13:37:34;2.40;;;2.20;;
16665;SDS011;8446;50.998;6.250;2023-07-22T13:40:01;3.13;;;2.70;;
16665;SDS011;8446;50.998;6.250;2023-07-22T13:42:34;3.30;;;2.10;;
16665;SDS011;8446;50.998;6.250;2023-07-22T13:45:01;2.67;;;2.43;;
16665;SDS011;8446;50.998;6.250;2023-07-22T13:47:28;3.37;;;2.50;;
16665;SDS011;8446;50.998;6.250;2023-07-22T13:49:56;4.07;;;2.67;;
16665;SDS011;8446;50.998;6.250;2023-07-22T13:52:23;2.73;;;2.33;;
16665;SDS011;8446;50.998;6.250;2023-07-22T13:54:50;4.10;;;2.53;;
16665;SDS011;8446;50.998;6.250;2023-07-22T13:57:16;2.53;;;2.33;;
16665;SDS011;8446;50.998;6.250;2023-07-22T13:59:43;4.53;;;2.40;;
16665;SDS011;8446;50.998;6.250;2023-07-22T14:02:10;5.30;;;2.43;;
16665;SDS011;8446;50.998;6.250;2023-07-22T14:04:37;2.40;;;1.83;;
16665;SDS011;8446;50.998;6.250;2023-07-22T14:07:05;5.90;;;2.43;;
16665;SDS011;8446;50.998;6.250;2023-07-22T14:09:32;6.63;;;2.47;;
16665;SDS011;8446;50.998;6.250;2023-07-22T14:11:59;3.13;;;2.10;;
16665;SDS011;8446;50.998;6.250;2023-07-22T14:14:26;3.80;;;2.33;;
16665;SDS011;8446;50.998;6.250;2023-07-22T14:16:53;4.33;;;1.93;;
16665;SDS011;8446;50.998;6.250;2023-07-22T14:19:21;2.60;;;2.03;;
16665;SDS011;8446;50.998;6.250;2023-07-22T14:21:47;10.60;;;2.03;;
16665;SDS011;8446;50.998;6.250;2023-07-22T14:24:16;2.43;;;1.80;;
16665;SDS011;8446;50.998;6.250;2023-07-22T14:26:42;3.20;;;2.10;;
16665;SDS011;8446;50.998;6.250;2023-07-22T14:29:09;3.33;;;1.70;;
16665;SDS011;8446;50.998;6.250;2023-07-22T14:31:36;2.13;;;1.80;;
16665;SDS011;8446;50.998;6.250;2023-07-22T14:34:03;1.90;;;1.70;;
16665;SDS011;8446;50.998;6.250;2023-07-22T14:36:29;6.33;;;1.77;;
16665;SDS011;8446;50.998;6.250;2023-07-22T14:38:56;2.47;;;1.90;;
16665;SDS011;8446;50.998;6.250;2023-07-22T14:41:25;1.73;;;1.50;;
16665;SDS011;8446;50.998;6.250;2023-07-22T14:43:51;6.17;;;1.70;;
16665;SDS011;8446;50.998;6.250;2023-07-22T14:46:18;3.00;;;1.70;;
16665;SDS011;8446;50.998;6.250;2023-07-22T14:48:45;1.50;;;1.40;;
16665;SDS011;8446;50.998;6.250;2023-07-22T14:51:12;2.23;;;1.93;;
16665;SDS011;8446;50.998;6.250;2023-07-22T14:53:39;3.90;;;1.63;;
16665;SDS011;8446;50.998;6.250;2023-07-22T14:56:06;3.40;;;1.80;;
16665;SDS011;8446;50.998;6.250;2023-07-22T14:58:34;3.60;;;2.13;;
16665;SDS011;8446;50.998;6.250;2023-07-22T15:01:01;3.10;;;1.80;;
16665;SDS011;8446;50.998;6.250;2023-07-22T15:03:28;1.70;;;1.60;;